createdAt,value
2022-08-27T00:04:24.011Z,20.52
2022-08-27T00:10:27.859Z,20.56
2022-08-27T00:16:30.630Z,20.62
2022-08-27T00:22:33.353Z,20.57
2022-08-27T00:28:35.718Z,20.68
2022-08-27T00:34:37.732Z,20.63
2022-08-27T00:40:40.611Z,20.51
2022-08-27T00:46:50.067Z,20.51
2022-08-27T00:52:57.456Z,20.39
2022-08-27T00:59:02.323Z,20.36
2022-08-27T01:05:12.050Z,20.15
2022-08-27T01:11:14.316Z,20.18
2022-08-27T01:17:17.130Z,20.16
2022-08-27T01:23:52.447Z,20.23
2022-08-27T01:29:54.786Z,20.31
2022-08-27T01:35:56.825Z,20.33
2022-08-27T01:42:09.866Z,20.09
2022-08-27T01:48:12.173Z,20.10
2022-08-27T01:54:14.344Z,20.31
2022-08-27T02:00:30.086Z,20.30
2022-08-27T02:06:32.100Z,20.19
2022-08-27T02:12:34.140Z,20.32
2022-08-27T02:18:38.471Z,20.17
2022-08-27T02:24:43.827Z,20.23
2022-08-27T02:30:45.831Z,20.01
2022-08-27T02:36:47.898Z,20.09
2022-08-27T02:42:50.557Z,19.99
2022-08-27T02:48:52.590Z,19.85
2022-08-27T02:54:54.583Z,19.91
2022-08-27T03:00:57.223Z,19.63
2022-08-27T03:06:59.287Z,19.67
2022-08-27T03:13:01.323Z,19.67
2022-08-27T03:19:07.303Z,19.79
2022-08-27T03:25:10.799Z,19.79
2022-08-27T03:31:27.161Z,19.71
2022-08-27T03:37:29.374Z,19.68
2022-08-27T03:43:31.751Z,19.70
2022-08-27T03:49:33.858Z,19.60
2022-08-27T03:55:35.938Z,19.56
2022-08-27T04:01:38.543Z,19.40
2022-08-27T04:07:42.182Z,19.48
2022-08-27T04:13:44.447Z,19.38
2022-08-27T04:19:46.449Z,19.41
2022-08-27T04:25:48.920Z,19.26
2022-08-27T04:31:51.472Z,19.45
2022-08-27T04:37:53.557Z,19.39
2022-08-27T04:43:58.880Z,19.17
2022-08-27T04:50:00.924Z,19.26
2022-08-27T04:56:06.487Z,19.22
2022-08-27T05:02:16.627Z,19.21
2022-08-27T05:08:19.155Z,19.16
2022-08-27T05:14:22.283Z,18.94
2022-08-27T05:20:24.273Z,18.99
2022-08-27T05:26:28.192Z,19.00
2022-08-27T05:32:30.984Z,18.99
2022-08-27T05:38:34.236Z,19.06
2022-08-27T05:44:41.002Z,18.87
2022-08-27T05:50:45.203Z,18.94
2022-08-27T05:56:49.888Z,19.07
2022-08-27T06:02:52.069Z,19.09
2022-08-27T06:08:54.929Z,19.05
2022-08-27T06:14:57.442Z,19.19
2022-08-27T06:20:59.587Z,19.16
2022-08-27T06:27:01.698Z,19.13
2022-08-27T06:33:03.719Z,19.27
2022-08-27T06:39:07.919Z,18.98
2022-08-27T06:45:11.110Z,19.00
2022-08-27T06:51:32.822Z,19.03
2022-08-27T06:57:34.792Z,19.24
2022-08-27T07:03:37.029Z,19.12
2022-08-27T07:09:39.194Z,19.10
2022-08-27T07:15:41.887Z,19.38
2022-08-27T07:21:44.425Z,19.54
2022-08-27T07:27:50.297Z,19.39
2022-08-27T07:33:53.392Z,19.29
2022-08-27T07:39:55.507Z,19.29
2022-08-27T07:46:02.308Z,19.04
2022-08-27T07:52:04.819Z,19.20
2022-08-27T07:58:11.562Z,19.30
2022-08-27T08:04:19.982Z,19.43
2022-08-27T08:10:23.359Z,19.44
2022-08-27T08:16:31.049Z,19.43
2022-08-27T08:22:33.955Z,19.63
2022-08-27T08:28:37.105Z,19.70
2022-08-27T08:34:39.192Z,19.82
2022-08-27T08:40:45.972Z,19.85
2022-08-27T08:46:55.870Z,20.04
2022-08-27T08:53:44.603Z,20.09
2022-08-27T09:00:01.257Z,20.06
2022-08-27T09:06:21.116Z,20.23
2022-08-27T09:12:30.130Z,20.49
2022-08-27T09:18:37.231Z,20.36
2022-08-27T09:25:06.316Z,20.27
2022-08-27T09:31:14.606Z,20.27
2022-08-27T09:37:44.018Z,20.08
2022-08-27T09:44:07.299Z,20.11
2022-08-27T09:50:10.684Z,20.16
2022-08-27T09:56:34.096Z,20.31
2022-08-27T10:02:36.119Z,20.53
2022-08-27T10:08:50.568Z,20.71
2022-08-27T10:14:58.966Z,20.97
2022-08-27T10:21:33.982Z,20.97
2022-08-27T10:27:57.840Z,21.22
2022-08-27T10:34:17.811Z,21.51
2022-08-27T10:40:42.661Z,21.66
2022-08-27T10:47:23.778Z,22.17
2022-08-27T10:54:07.114Z,22.24
2022-08-27T11:00:21.194Z,22.61
2022-08-27T11:06:51.076Z,22.58
2022-08-27T11:12:59.987Z,22.74
2022-08-27T11:19:42.437Z,22.51
2022-08-27T11:26:02.445Z,22.45
2022-08-27T11:32:22.505Z,22.52
2022-08-27T11:38:55.485Z,22.64
2022-08-27T11:45:06.860Z,22.91
2022-08-27T11:51:14.444Z,22.75
2022-08-27T11:57:34.711Z,22.44
2022-08-27T12:03:37.108Z,22.27
2022-08-27T12:09:58.066Z,22.33
2022-08-27T12:16:12.719Z,22.62
2022-08-27T12:23:32.554Z,22.44
2022-08-27T12:29:50.099Z,22.05
2022-08-27T12:35:54.610Z,21.96
2022-08-27T12:41:58.060Z,21.60
2022-08-27T12:48:00.194Z,21.88
2022-08-27T12:54:30.231Z,22.05
2022-08-27T13:01:06.522Z,22.07
2022-08-27T13:07:08.873Z,22.10
2022-08-27T13:13:20.442Z,21.89
2022-08-27T13:19:36.009Z,21.93
2022-08-27T13:25:38.041Z,21.53
2022-08-27T13:31:40.678Z,21.05
2022-08-27T13:37:49.512Z,21.18
2022-08-27T13:43:55.811Z,21.16
2022-08-27T13:50:11.922Z,20.84
2022-08-27T13:56:36.813Z,20.81
2022-08-27T14:02:38.936Z,20.81
2022-08-27T14:08:41.167Z,20.70
2022-08-27T14:14:43.252Z,20.54
2022-08-27T14:20:45.263Z,20.31
2022-08-27T14:27:08.394Z,20.22
2022-08-27T14:33:11.406Z,20.37
2022-08-27T14:39:13.760Z,20.35
2022-08-27T14:45:15.929Z,20.33
2022-08-27T14:51:29.588Z,20.61
2022-08-27T14:57:31.847Z,20.61
2022-08-27T15:03:39.295Z,20.89
2022-08-27T15:09:41.332Z,20.98
2022-08-27T15:15:43.712Z,21.00
2022-08-27T15:21:48.857Z,21.18
2022-08-27T15:27:52.647Z,21.58
2022-08-27T15:33:56.230Z,22.33
2022-08-27T15:39:58.330Z,22.53
2022-08-27T15:46:02.595Z,22.34
2022-08-27T15:52:05.293Z,22.31
2022-08-27T15:58:08.867Z,22.45
2022-08-27T16:04:10.908Z,21.96
2022-08-27T16:10:14.528Z,21.55
2022-08-27T16:16:21.088Z,21.35
2022-08-27T16:22:23.463Z,21.11
2022-08-27T16:28:26.006Z,21.31
2022-08-27T16:34:28.783Z,21.38
2022-08-27T16:40:33.845Z,21.28
2022-08-27T16:46:36.012Z,21.35
2022-08-27T16:52:38.071Z,21.26
2022-08-27T16:58:40.003Z,21.15
2022-08-27T17:04:43.672Z,21.31
2022-08-27T17:10:50.948Z,21.18
2022-08-27T17:16:54.068Z,21.26
2022-08-27T17:22:56.545Z,20.84
2022-08-27T17:28:59.836Z,20.80
2022-08-27T17:35:05.919Z,20.68
2022-08-27T17:41:14.689Z,20.79
2022-08-27T17:47:16.739Z,20.57
2022-08-27T17:53:18.722Z,20.62
2022-08-27T17:59:20.738Z,20.57
2022-08-27T18:05:25.671Z,20.57
2022-08-27T18:11:27.928Z,20.40
2022-08-27T18:17:29.888Z,20.29
2022-08-27T18:23:33.958Z,20.26
2022-08-27T18:29:35.932Z,20.27
2022-08-27T18:35:39.696Z,20.47
2022-08-27T18:41:42.054Z,20.30
2022-08-27T18:47:44.821Z,20.09
2022-08-27T18:53:48.704Z,20.08
2022-08-27T18:59:50.769Z,20.15
2022-08-27T19:05:54.947Z,20.22
2022-08-27T19:11:58.077Z,20.10
2022-08-27T19:18:04.422Z,20.23
2022-08-27T19:24:07.348Z,20.24
2022-08-27T19:30:11.524Z,20.31
2022-08-27T19:36:17.361Z,20.10
2022-08-27T19:42:19.354Z,20.23
2022-08-27T19:48:21.352Z,20.21
2022-08-27T19:54:23.397Z,20.02
2022-08-27T20:00:34.518Z,20.00
2022-08-27T20:06:36.533Z,20.05
2022-08-27T20:12:38.737Z,19.98
2022-08-27T20:18:40.734Z,19.99
2022-08-27T20:24:42.796Z,19.93
2022-08-27T20:30:45.100Z,19.89
2022-08-27T20:36:52.686Z,19.80
2022-08-27T20:42:56.212Z,19.85
2022-08-27T20:48:59.085Z,19.98
2022-08-27T20:55:01.286Z,19.79
2022-08-27T21:01:03.581Z,19.68
2022-08-27T21:07:06.169Z,19.62
2022-08-27T21:13:10.899Z,19.61
2022-08-27T21:19:14.422Z,19.54
2022-08-27T21:25:16.438Z,19.52
2022-08-27T21:31:18.426Z,19.43
2022-08-27T21:37:20.488Z,19.26
2022-08-27T21:43:22.795Z,19.29
2022-08-27T21:49:24.797Z,19.15
2022-08-27T21:55:26.975Z,19.13
2022-08-27T22:01:29.162Z,18.85
2022-08-27T22:07:31.182Z,19.01
2022-08-27T22:13:33.820Z,18.98
2022-08-27T22:19:35.769Z,18.92
2022-08-27T22:25:38.081Z,18.87
2022-08-27T22:31:40.558Z,18.72
2022-08-27T22:37:44.046Z,18.79
2022-08-27T22:43:47.306Z,18.55
2022-08-27T22:49:50.533Z,18.45
2022-08-27T22:55:56.424Z,18.42
2022-08-27T23:01:59.430Z,18.40
2022-08-27T23:08:01.914Z,18.11
2022-08-27T23:14:04.377Z,18.09
2022-08-27T23:20:09.327Z,17.82
2022-08-27T23:26:30.224Z,17.89
2022-08-27T23:32:32.263Z,17.88
2022-08-27T23:38:34.377Z,17.69
2022-08-27T23:44:36.910Z,17.74
2022-08-27T23:50:40.190Z,17.58
2022-08-27T23:56:42.277Z,17.53
